< < Back
Terminal Aerodrome Forecast


Current Version              Previous Versions:   1  2  3  4  5  6  7  8  9  

Terminal Aerodrome Forecast

051
FTUS42 KTAE 172300
TAFABY
TAF
KABY 172320Z 1800/1824 31004KT P6SM SCT250=

Latest METAR

558
SAUS70 KWBC 190400 RRA
MTRABY
METAR KABY 190353Z 00000KT 10SM CLR 07/04 A3018 RMK AO2 SLP219
T00720039


USA.gov is the U.S. government's official web portal to all federal, state and local government web resources and services.